Time;durP1;ratioP1;P1;durP2;ratioP2;P2;SDS_P1;SDS_P2;PMS_P1;PMS_P2;Temp;Humidity;BMP_temperature;BMP_pressure;BME280_temperature;BME280_humidity;BME280_pressure;Samples;Min_cycle;Max_cycle;Signal;HPM_P1;HPM_P2
2023/04/20 00:01:39;;;;;;;7.57;6.20;;;;;;;13.78;67.30;99096.09;5092328;28;20031;-79
2023/04/20 00:04:05;;;;;;;9.75;6.75;;;;;;;13.60;67.30;99064.94;5092535;28;20024;-79
2023/04/20 00:06:32;;;;;;;7.47;6.25;;;;;;;13.36;66.93;99048.66;5092245;28;20107;-79
2023/04/20 00:08:58;;;;;;;8.23;6.18;;;;;;;13.92;66.81;99126.88;5092182;28;20024;-79
2023/04/20 00:11:24;;;;;;;8.35;6.20;;;;;;;13.57;67.21;99063.50;5092349;28;20121;-79
2023/04/20 00:13:49;;;;;;;7.05;6.35;;;;;;;13.61;67.16;99074.53;5092069;28;20092;-79
2023/04/20 00:16:14;;;;;;;7.20;6.50;;;;;;;13.89;66.79;99117.50;5091933;28;20060;-79
2023/04/20 00:18:40;;;;;;;6.43;5.82;;;;;;;13.32;66.89;99028.06;5091828;28;20024;-79
2023/04/20 00:21:06;;;;;;;7.35;6.07;;;;;;;13.63;66.83;99083.91;5090730;28;20067;-79
2023/04/20 00:23:31;;;;;;;7.13;5.78;;;;;;;13.70;67.00;99096.31;5091578;28;20485;-79
2023/04/20 00:25:57;;;;;;;9.90;7.22;;;;;;;13.81;66.79;99119.56;5091520;28;20052;-80
2023/04/20 00:28:22;;;;;;;9.18;7.25;;;;;;;13.61;66.83;99099.22;5091911;28;20027;-77
2023/04/20 00:30:47;;;;;;;6.85;6.15;;;;;;;13.57;66.80;99090.03;5092056;28;20153;-79
2023/04/20 00:33:13;;;;;;;7.68;6.53;;;;;;;13.08;66.82;99018.09;5091870;28;20031;-79
2023/04/20 00:35:38;;;;;;;9.27;6.40;;;;;;;13.69;66.91;99122.03;5091842;28;20476;-79
2023/04/20 00:38:04;;;;;;;9.52;6.40;;;;;;;13.67;66.94;99118.78;5091019;28;20024;-80
2023/04/20 00:40:30;;;;;;;9.05;6.13;;;;;;;13.57;66.72;99110.44;5091675;28;20424;-79
2023/04/20 00:42:55;;;;;;;8.25;5.75;;;;;;;13.22;66.49;99043.59;5091789;28;20059;-80
2023/04/20 00:45:21;;;;;;;10.23;6.85;;;;;;;13.54;66.79;99098.41;5091489;28;20077;-79
2023/04/20 00:47:46;;;;;;;6.97;6.15;;;;;;;13.16;66.84;99029.28;5091615;28;20548;-80
2023/04/20 00:50:12;;;;;;;6.93;6.22;;;;;;;13.12;66.71;99036.03;5092014;28;20020;-79
2023/04/20 00:52:39;;;;;;;6.05;5.45;;;;;;;13.38;66.76;99090.91;5091956;28;20029;-79
2023/04/20 00:55:05;;;;;;;6.60;5.93;;;;;;;13.04;66.95;99045.00;5091693;28;20066;-78
2023/04/20 00:57:31;;;;;;;8.50;6.32;;;;;;;12.82;67.00;99003.88;5091764;28;20024;-78
2023/04/20 00:59:56;;;;;;;7.97;6.65;;;;;;;13.40;67.25;99106.59;5091453;28;20032;-78
2023/04/20 01:02:22;;;;;;;7.25;6.50;;;;;;;13.40;67.08;99103.94;5091368;28;20546;-78
2023/04/20 01:04:47;;;;;;;7.75;6.40;;;;;;;13.00;67.15;99050.94;5091289;28;20050;-78
2023/04/20 01:07:13;;;;;;;7.75;6.32;;;;;;;13.35;67.27;99117.81;5091141;28;20389;-78
2023/04/20 01:09:38;;;;;;;8.45;7.40;;;;;;;13.37;67.07;99107.81;5091452;28;20077;-78
2023/04/20 01:12:05;;;;;;;7.43;6.55;;;;;;;13.35;67.39;99115.97;5091090;28;20074;-78
2023/04/20 01:14:31;;;;;;;10.82;7.97;;;;;;;13.00;67.22;99046.44;5091186;28;20028;-78
2023/04/20 01:16:57;;;;;;;10.70;8.48;;;;;;;12.95;67.41;99064.78;5091231;28;20103;-79
2023/04/20 01:19:22;;;;;;;9.55;8.38;;;;;;;13.29;67.33;99116.78;5091086;28;20023;-79
2023/04/20 01:21:48;;;;;;;10.48;8.27;;;;;;;12.67;67.16;99009.38;5091174;28;20024;-79
2023/04/20 01:24:13;;;;;;;10.20;7.57;;;;;;;13.28;67.49;99099.25;5091293;28;20077;-79
2023/04/20 01:26:39;;;;;;;11.35;7.45;;;;;;;12.97;67.47;99060.09;5090988;28;20082;-80
2023/04/20 01:29:04;;;;;;;9.38;7.88;;;;;;;12.79;67.54;99025.47;5089926;28;20042;-79
2023/04/20 01:31:30;;;;;;;9.63;8.48;;;;;;;13.28;67.33;99103.75;5090952;28;20024;-79
2023/04/20 01:33:55;;;;;;;10.80;7.25;;;;;;;12.90;67.35;99038.09;5091122;28;20028;-79
2023/04/20 01:36:21;;;;;;;9.35;8.27;;;;;;;12.85;67.29;99040.56;5093434;28;20028;-79
2023/04/20 01:38:47;;;;;;;11.55;7.97;;;;;;;13.21;67.27;99101.09;5093702;28;20036;-79
2023/04/20 01:41:12;;;;;;;9.07;8.07;;;;;;;13.20;67.26;99106.59;5094989;28;20020;-79
2023/04/20 01:43:38;;;;;;;11.57;8.82;;;;;;;12.61;67.33;99004.06;5094872;28;20028;-79
2023/04/20 01:46:05;;;;;;;11.38;9.43;;;;;;;13.19;67.64;99104.97;5094796;28;20032;-79
2023/04/20 01:48:30;;;;;;;12.63;8.98;;;;;;;13.15;67.45;99101.06;5094782;28;20016;-79
2023/04/20 01:50:56;;;;;;;10.13;7.93;;;;;;;13.10;67.20;99104.34;5094944;28;20028;-79
2023/04/20 01:53:21;;;;;;;10.57;9.07;;;;;;;12.96;66.95;99084.16;5094716;28;20052;-79
2023/04/20 01:55:50;;;;;;;12.63;11.32;;;;;;;13.00;67.00;99094.16;5094708;28;20020;-79
2023/04/20 01:58:16;;;;;;;9.35;8.45;;;;;;;12.63;66.81;99045.25;5093351;28;20028;-79
2023/04/20 02:00:41;;;;;;;10.05;8.02;;;;;;;12.39;66.98;99003.44;5094608;28;20052;-79
2023/04/20 02:03:07;;;;;;;8.77;7.97;;;;;;;12.49;66.94;99024.22;5094446;28;20031;-79
2023/04/20 02:05:32;;;;;;;6.88;6.18;;;;;;;12.38;67.19;99020.34;5093354;28;20494;-79
2023/04/20 02:07:58;;;;;;;12.60;8.68;;;;;;;12.89;67.12;99100.06;5094494;28;20552;-79
2023/04/20 02:10:23;;;;;;;10.13;8.38;;;;;;;12.34;67.05;99021.78;5094512;28;20024;-79
2023/04/20 02:12:49;;;;;;;8.85;7.45;;;;;;;12.41;67.18;99044.59;5094450;28;20500;-79
2023/04/20 02:15:15;;;;;;;9.27;8.23;;;;;;;12.01;67.01;98974.09;5094703;28;20038;-80
2023/04/20 02:17:41;;;;;;;10.75;8.27;;;;;;;12.01;67.06;98992.59;5094569;28;20103;-79
2023/04/20 02:20:10;;;;;;;9.75;8.75;;;;;;;12.24;67.38;99026.63;5094268;28;20024;-79
2023/04/20 02:22:36;;;;;;;9.02;7.90;;;;;;;12.75;67.51;99089.66;5094039;28;20019;-79
2023/04/20 02:25:04;;;;;;;8.88;7.55;;;;;;;12.76;67.35;99108.00;5093793;28;20077;-79
2023/04/20 02:27:30;;;;;;;9.43;8.48;;;;;;;12.76;67.35;99093.94;5093923;28;20480;-79
2023/04/20 02:29:56;;;;;;;9.40;8.15;;;;;;;12.46;67.11;99046.63;5094059;28;20444;-79
2023/04/20 02:32:21;;;;;;;10.73;8.30;;;;;;;12.30;66.70;99020.53;5094130;28;20028;-79
2023/04/20 02:34:47;;;;;;;11.13;9.25;;;;;;;12.45;66.78;99054.78;5094135;28;20031;-79
2023/04/20 02:37:12;;;;;;;8.85;7.95;;;;;;;12.47;66.73;99052.75;5094267;28;20031;-79
2023/04/20 02:39:37;;;;;;;11.82;8.00;;;;;;;12.29;66.20;99046.19;5093977;28;20031;-79
2023/04/20 02:42:04;;;;;;;11.27;8.43;;;;;;;12.35;66.39;99036.63;5093888;28;20035;-79
2023/04/20 02:44:29;;;;;;;8.73;7.85;;;;;;;12.23;66.69;99025.00;5093889;28;20028;-79
2023/04/20 02:46:55;;;;;;;14.27;9.80;;;;;;;12.47;66.49;99080.03;5092811;28;20099;-79
2023/04/20 02:49:20;;;;;;;15.00;11.52;;;;;;;12.23;66.34;99032.94;5093791;28;20085;-79
2023/04/20 02:51:46;;;;;;;11.65;9.70;;;;;;;12.43;66.37;99070.84;5093797;28;20032;-79
2023/04/20 02:54:11;;;;;;;11.30;9.27;;;;;;;12.22;66.16;99058.59;5093583;28;20393;-79
2023/04/20 02:56:36;;;;;;;10.45;8.30;;;;;;;12.23;66.31;99043.53;5093606;28;20027;-79
2023/04/20 02:59:03;;;;;;;9.70;7.75;;;;;;;12.51;66.01;99094.50;5093589;28;20024;-79
2023/04/20 03:01:28;;;;;;;8.38;7.40;;;;;;;11.74;65.90;98984.53;5093553;28;20031;-79
2023/04/20 03:03:54;;;;;;;6.63;5.97;;;;;;;11.80;65.95;99003.31;5093440;28;20028;-79
2023/04/20 03:06:19;;;;;;;6.53;5.40;;;;;;;11.94;66.36;99045.50;5092141;28;20028;-79
2023/04/20 03:08:45;;;;;;;7.85;6.50;;;;;;;11.84;66.03;99012.47;5093339;28;20042;-79
2023/04/20 03:11:10;;;;;;;7.00;6.13;;;;;;;12.16;65.71;99077.13;5093400;28;20475;-79
2023/04/20 03:13:36;;;;;;;7.28;6.57;;;;;;;12.32;65.84;99109.31;5093365;28;20039;-79
2023/04/20 03:16:01;;;;;;;7.90;6.10;;;;;;;12.07;65.65;99055.31;5093182;28;20111;-79
2023/04/20 03:18:26;;;;;;;6.72;5.75;;;;;;;12.24;65.89;99087.53;5093455;28;20089;-80
2023/04/20 03:20:52;;;;;;;6.05;5.45;;;;;;;12.31;65.73;99098.94;5093061;28;20024;-79
2023/04/20 03:23:18;;;;;;;6.93;5.72;;;;;;;11.77;65.64;99031.78;5093083;28;20489;-80
2023/04/20 03:25:45;;;;;;;6.35;5.72;;;;;;;11.78;65.48;99019.38;5091550;28;20821;-79
2023/04/20 03:28:10;;;;;;;8.43;5.40;;;;;;;11.85;65.65;99041.38;5091649;28;20024;-78
2023/04/20 03:30:36;;;;;;;8.82;5.38;;;;;;;11.91;65.80;99045.91;5091532;28;20028;-78
2023/04/20 03:33:01;;;;;;;8.80;5.68;;;;;;;11.88;65.41;99027.75;5092695;28;20035;-79
2023/04/20 03:35:27;;;;;;;6.10;4.95;;;;;;;12.31;65.85;99097.09;5092681;28;20028;-79
2023/04/20 03:37:52;;;;;;;6.88;6.22;;;;;;;11.61;65.39;98981.88;5092597;28;20032;-79
2023/04/20 03:40:17;;;;;;;7.88;6.97;;;;;;;12.09;65.06;99077.09;5092684;28;20023;-79
2023/04/20 03:42:43;;;;;;;9.05;5.95;;;;;;;12.18;65.30;99090.97;5091550;28;20414;-79
2023/04/20 03:45:09;;;;;;;11.30;7.70;;;;;;;11.94;65.29;99050.78;5092733;28;20028;-79
2023/04/20 03:47:34;;;;;;;18.35;13.25;;;;;;;11.70;65.71;99004.47;5092843;28;20026;-78
2023/04/20 03:50:00;;;;;;;15.10;11.60;;;;;;;12.26;65.23;99096.88;5092536;28;20420;-79
2023/04/20 03:52:25;;;;;;;12.60;9.85;;;;;;;12.11;65.31;99053.09;5092471;28;20493;-79
2023/04/20 03:54:51;;;;;;;13.93;8.75;;;;;;;12.14;65.35;99055.31;5092438;28;20412;-79
2023/04/20 03:57:16;;;;;;;10.05;8.15;;;;;;;11.67;65.07;98993.47;5092276;28;20107;-79
2023/04/20 03:59:41;;;;;;;11.82;9.20;;;;;;;11.81;65.39;99012.88;5090801;28;20024;-79
2023/04/20 04:02:09;;;;;;;13.30;8.85;;;;;;;12.43;65.57;99107.09;5091289;28;20456;-80
2023/04/20 04:04:35;;;;;;;11.63;7.80;;;;;;;12.09;65.57;99053.28;5092414;28;20070;-78
2023/04/20 04:07:00;;;;;;;8.30;7.32;;;;;;;11.73;65.28;98992.69;5092052;28;20110;-78
2023/04/20 04:09:26;;;;;;;12.18;8.88;;;;;;;12.35;65.19;99093.03;5090750;28;20028;-78
2023/04/20 04:11:51;;;;;;;13.40;9.57;;;;;;;12.17;65.33;99065.50;5091937;28;20020;-78
2023/04/20 04:14:16;;;;;;;15.10;10.07;;;;;;;12.26;65.87;99077.53;5091949;28;20032;-78
2023/04/20 04:16:42;;;;;;;12.52;10.02;;;;;;;11.92;65.68;99030.84;5090869;28;20024;-77
2023/04/20 04:19:07;;;;;;;18.95;13.18;;;;;;;12.57;66.03;99117.53;5092113;28;20020;-79
2023/04/20 04:21:33;;;;;;;20.63;14.60;;;;;;;12.59;66.11;99110.19;5091956;28;20028;-79
2023/04/20 04:23:58;;;;;;;25.80;17.05;;;;;;;12.36;65.77;99083.28;5091982;28;20077;-79
2023/04/20 04:26:25;;;;;;;24.27;14.55;;;;;;;12.08;65.80;99022.53;5091894;28;20131;-79
2023/04/20 04:28:51;;;;;;;23.63;13.90;;;;;;;12.70;65.94;99112.28;5091909;28;20024;-80
2023/04/20 04:31:20;;;;;;;21.75;14.07;;;;;;;12.31;66.09;99049.47;5091934;28;20078;-79
2023/04/20 04:33:46;;;;;;;21.38;14.30;;;;;;;12.62;65.81;99098.38;5092106;28;20069;-79
2023/04/20 04:36:14;;;;;;;23.90;18.02;;;;;;;12.74;65.90;99091.50;5092466;28;20020;-79
2023/04/20 04:38:43;;;;;;;22.42;16.50;;;;;;;12.91;65.44;99102.50;5092359;28;20484;-79
2023/04/20 04:41:08;;;;;;;16.85;13.82;;;;;;;12.54;65.27;99043.78;5114860;28;20016;-78
2023/04/20 04:43:34;;;;;;;15.25;11.32;;;;;;;13.00;65.37;99104.75;5105584;28;20028;-79
2023/04/20 04:46:06;;;;;;;14.68;10.95;;;;;;;12.72;65.22;99057.25;5091780;28;20100;-79
2023/04/20 04:48:34;;;;;;;13.43;10.45;;;;;;;12.68;65.12;99050.75;5091561;28;20102;-79
2023/04/20 04:50:59;;;;;;;15.57;11.48;;;;;;;12.72;64.95;99029.97;5091534;28;20023;-79
2023/04/20 04:53:25;;;;;;;18.27;14.13;;;;;;;12.73;64.49;99029.75;5091496;28;20024;-79
2023/04/20 04:55:50;;;;;;;20.50;14.70;;;;;;;12.89;64.47;99048.91;5091479;28;20489;-80
2023/04/20 04:58:15;;;;;;;13.93;11.82;;;;;;;13.42;64.16;99112.53;5091495;28;20107;-80
2023/04/20 05:00:41;;;;;;;13.38;9.85;;;;;;;13.49;63.78;99108.00;5091479;28;20038;-79
2023/04/20 05:03:06;;;;;;;13.30;10.30;;;;;;;13.57;63.42;99115.75;5091458;28;20477;-80
2023/04/20 05:05:32;;;;;;;15.02;12.27;;;;;;;13.27;63.32;99052.53;5091441;28;20016;-79
2023/04/20 05:07:57;;;;;;;13.65;10.93;;;;;;;13.74;63.00;99114.28;5091271;28;20476;-79
2023/04/20 05:10:23;;;;;;;11.60;9.77;;;;;;;13.11;62.39;99001.78;5092058;28;20051;-79
2023/04/20 05:12:48;;;;;;;10.70;9.60;;;;;;;13.29;61.90;99010.75;5095701;28;20039;-79
2023/04/20 05:15:13;;;;;;;11.43;9.38;;;;;;;13.38;61.29;99019.31;5093419;28;20032;-79
2023/04/20 05:17:39;;;;;;;11.32;10.23;;;;;;;13.77;60.80;99071.41;5094546;28;20027;-79
2023/04/20 05:20:06;;;;;;;11.05;10.00;;;;;;;13.96;60.61;99089.09;5094595;28;20470;-80
2023/04/20 05:22:32;;;;;;;11.68;10.48;;;;;;;14.20;60.20;99114.13;5095009;28;20015;-79
2023/04/20 05:24:57;;;;;;;13.68;10.27;;;;;;;13.66;60.03;99013.69;5095109;28;20028;-79
2023/04/20 05:27:22;;;;;;;11.48;9.95;;;;;;;13.51;59.78;98995.41;5094578;28;20277;-79
2023/04/20 05:29:48;;;;;;;10.88;9.77;;;;;;;13.75;59.80;99014.25;5095140;28;20024;-79
2023/04/20 05:32:13;;;;;;;12.88;10.68;;;;;;;14.37;59.30;99103.81;5095101;28;20032;-79
2023/04/20 05:34:38;;;;;;;14.43;12.77;;;;;;;14.01;59.30;99030.06;5094898;28;20485;-79
2023/04/20 05:37:04;;;;;;;10.75;9.65;;;;;;;14.26;59.11;99060.16;5094647;28;20028;-79
2023/04/20 05:39:30;;;;;;;11.07;9.35;;;;;;;14.68;58.83;99118.16;5093922;28;20642;-79
2023/04/20 05:41:56;;;;;;;8.50;7.70;;;;;;;14.67;57.36;99117.34;5094844;28;20119;-79
2023/04/20 05:44:22;;;;;;;9.68;8.20;;;;;;;14.67;56.66;99129.81;5094464;28;20028;-79
2023/04/20 05:46:47;;;;;;;10.75;8.32;;;;;;;14.65;56.89;99126.56;5094335;28;20024;-79
2023/04/20 05:49:13;;;;;;;9.75;8.85;;;;;;;14.52;56.27;99107.03;5093605;28;20028;-80
2023/04/20 05:51:38;;;;;;;14.30;8.93;;;;;;;14.20;56.08;99063.66;5093305;28;20028;-79
2023/04/20 05:54:04;;;;;;;10.13;9.13;;;;;;;14.18;55.61;99070.22;5092282;28;20031;-78
2023/04/20 05:56:30;;;;;;;9.27;7.88;;;;;;;14.32;55.68;99096.47;5093636;28;20103;-78
2023/04/20 05:58:56;;;;;;;10.18;8.50;;;;;;;14.08;55.54;99040.63;5093720;28;20108;-79
2023/04/20 06:01:21;;;;;;;8.27;7.47;;;;;;;14.40;55.15;99103.38;5091691;28;20507;-78
2023/04/20 06:03:48;;;;;;;10.80;7.38;;;;;;;13.99;54.77;99035.56;5093771;28;20024;-79
2023/04/20 06:06:14;;;;;;;7.78;6.97;;;;;;;14.11;54.43;99059.59;5093748;28;20527;-77
2023/04/20 06:08:39;;;;;;;8.52;7.68;;;;;;;14.32;54.40;99107.09;5093830;28;20024;-78
2023/04/20 06:11:05;;;;;;;9.98;7.53;;;;;;;14.44;54.24;99115.25;5092799;28;20077;-77
2023/04/20 06:13:30;;;;;;;8.32;7.53;;;;;;;14.53;54.27;99134.41;5091735;28;20050;-77
2023/04/20 06:15:56;;;;;;;8.82;7.80;;;;;;;14.38;54.29;99113.41;5092461;28;20133;-78
2023/04/20 06:18:21;;;;;;;8.27;7.43;;;;;;;14.48;54.36;99126.25;5092387;28;20028;-77
2023/04/20 06:20:47;;;;;;;11.30;8.93;;;;;;;14.13;54.54;99083.31;5094181;28;20089;-78
2023/04/20 06:23:12;;;;;;;11.00;8.48;;;;;;;14.28;54.24;99094.47;5092906;28;20020;-78
2023/04/20 06:25:38;;;;;;;8.23;7.40;;;;;;;14.17;54.16;99065.94;5093228;28;20128;-77
2023/04/20 06:28:05;;;;;;;8.98;8.13;;;;;;;14.04;54.54;99072.09;5090650;28;20701;-78
2023/04/20 06:30:32;;;;;;;10.52;8.73;;;;;;;14.42;54.51;99119.97;5086137;28;20051;-78
2023/04/20 06:32:59;;;;;;;9.80;8.43;;;;;;;14.43;54.47;99118.13;5089570;28;20257;-76
2023/04/20 06:35:25;;;;;;;9.95;8.13;;;;;;;13.94;54.49;99050.50;5088995;28;20123;-77
2023/04/20 06:37:51;;;;;;;9.70;8.45;;;;;;;14.26;54.50;99092.03;5091898;28;20081;-77
2023/04/20 06:40:19;;;;;;;8.95;8.05;;;;;;;14.58;54.94;99145.19;5092560;28;20032;-79
2023/04/20 06:42:45;;;;;;;11.57;8.77;;;;;;;14.62;54.82;99128.63;5094239;28;20052;-79
2023/04/20 06:45:11;;;;;;;10.55;8.40;;;;;;;14.76;54.76;99147.94;5102128;28;20111;-78
2023/04/20 06:47:36;;;;;;;12.27;10.27;;;;;;;14.47;54.62;99093.56;5095184;28;20494;-78
2023/04/20 06:50:06;;;;;;;9.25;8.15;;;;;;;14.46;54.78;99105.22;5094488;28;20184;-78
2023/04/20 06:52:31;;;;;;;10.15;9.20;;;;;;;14.91;55.00;99158.31;5112903;28;20023;-79
2023/04/20 06:54:58;;;;;;;13.07;11.38;;;;;;;14.46;54.69;99109.72;5097119;28;20057;-79
2023/04/20 06:57:23;;;;;;;10.07;9.10;;;;;;;14.24;54.47;99050.78;5094272;28;20419;-78
2023/04/20 06:59:49;;;;;;;11.68;8.77;;;;;;;14.99;54.36;99146.59;5092289;28;20035;-78
2023/04/20 07:02:14;;;;;;;9.98;9.02;;;;;;;14.64;54.12;99088.56;5091809;28;20059;-79
2023/04/20 07:04:39;;;;;;;10.88;9.60;;;;;;;14.82;54.24;99107.22;5093164;28;20032;-79
2023/04/20 07:07:05;;;;;;;10.38;9.27;;;;;;;14.77;54.08;99092.94;5090077;28;20475;-78
2023/04/20 07:09:31;;;;;;;10.77;9.10;;;;;;;15.10;54.00;99137.91;5090343;28;20024;-78
2023/04/20 07:11:56;;;;;;;9.70;8.80;;;;;;;15.17;54.13;99131.50;5090485;28;20032;-78
2023/04/20 07:14:22;;;;;;;10.05;8.35;;;;;;;15.16;53.71;99137.84;5085954;28;20126;-79
2023/04/20 07:16:51;;;;;;;8.85;7.95;;;;;;;15.25;53.73;99152.50;5092558;28;20477;-78
2023/04/20 07:19:16;;;;;;;9.57;8.38;;;;;;;14.94;53.64;99086.91;5090944;28;20492;-79
2023/04/20 07:21:42;;;;;;;10.25;8.73;;;;;;;14.82;53.48;99054.06;5090874;28;20028;-78
2023/04/20 07:24:07;;;;;;;10.23;9.02;;;;;;;15.54;53.52;99155.53;5092310;28;20484;-78
2023/04/20 07:26:32;;;;;;;12.00;8.80;;;;;;;15.42;53.06;99120.03;5091123;28;20040;-79
2023/04/20 07:28:58;;;;;;;12.80;9.95;;;;;;;14.80;53.03;99023.41;5092611;27;20036;-78
2023/04/20 07:31:23;;;;;;;10.15;9.15;;;;;;;15.34;53.03;99113.16;5096803;28;20156;-78
2023/04/20 07:33:50;;;;;;;9.63;8.73;;;;;;;15.32;52.41;99104.56;5094109;28;20027;-78
2023/04/20 07:36:15;;;;;;;10.43;8.10;;;;;;;15.55;51.74;99138.53;5091460;28;20467;-79
2023/04/20 07:38:41;;;;;;;9.77;8.75;;;;;;;15.27;51.88;99091.13;5093516;28;20032;-78
2023/04/20 07:41:10;;;;;;;9.73;8.55;;;;;;;15.63;51.27;99140.97;5089129;28;20051;-78
2023/04/20 07:43:36;;;;;;;11.63;9.20;;;;;;;15.69;50.54;99152.56;5086483;28;20489;-77
2023/04/20 07:46:01;;;;;;;9.05;8.15;;;;;;;15.62;50.40;99130.53;5087994;28;20088;-78
2023/04/20 07:48:27;;;;;;;8.80;7.90;;;;;;;15.33;49.62;99102.72;5109766;28;20474;-78
2023/04/20 07:50:52;;;;;;;10.50;8.63;;;;;;;15.40;49.49;99104.28;5106862;28;20510;-78
2023/04/20 07:53:18;;;;;;;10.40;8.32;;;;;;;15.65;49.07;99149.53;5091026;28;20381;-79
2023/04/20 07:55:43;;;;;;;10.23;8.45;;;;;;;15.22;49.62;99056.38;5089585;28;20036;-79
2023/04/20 07:58:08;;;;;;;10.60;8.57;;;;;;;15.42;49.54;99082.78;5091221;28;20020;-78
2023/04/20 08:00:34;;;;;;;10.90;9.60;;;;;;;15.93;49.67;99145.56;5091669;28;20024;-79
2023/04/20 08:02:59;;;;;;;9.35;8.30;;;;;;;15.77;49.48;99099.84;5091604;28;20111;-79
2023/04/20 08:05:25;;;;;;;11.15;8.20;;;;;;;16.12;49.42;99133.84;5085189;28;20508;-77
2023/04/20 08:07:50;;;;;;;10.18;8.48;;;;;;;16.11;48.97;99106.41;5091884;28;20030;-79
2023/04/20 08:10:16;;;;;;;9.90;8.88;;;;;;;16.44;48.71;99139.81;5094652;28;20094;-79
2023/04/20 08:12:41;;;;;;;9.55;8.43;;;;;;;15.93;48.60;99031.06;5101677;28;20504;-78
2023/04/20 08:15:07;;;;;;;11.48;8.85;;;;;;;16.45;48.42;99093.47;5083150;28;20024;-79
2023/04/20 08:17:33;;;;;;;8.88;7.88;;;;;;;16.58;47.97;99114.59;5090016;28;20497;-78
2023/04/20 08:19:58;;;;;;;9.18;8.27;;;;;;;16.48;47.74;99101.03;5098989;28;20102;-78
2023/04/20 08:22:26;;;;;;;9.75;7.60;;;;;;;16.39;47.17;99087.22;5094260;28;20038;-78
2023/04/20 08:24:52;;;;;;;9.18;8.27;;;;;;;16.23;47.19;99023.88;5099043;28;20024;-78
2023/04/20 08:27:17;;;;;;;9.45;8.57;;;;;;;16.79;46.58;99123.97;5088148;28;20101;-79
2023/04/20 08:29:43;;;;;;;9.23;8.25;;;;;;;16.96;46.95;99146.25;5084468;28;20032;-77
2023/04/20 08:32:08;;;;;;;10.55;8.95;;;;;;;16.80;46.81;99104.25;5090068;28;20020;-76
2023/04/20 08:34:34;;;;;;;9.30;8.40;;;;;;;17.02;46.61;99141.88;5089191;28;20485;-77
2023/04/20 08:36:59;;;;;;;9.40;7.80;;;;;;;17.02;46.53;99137.34;5087273;28;20489;-77
2023/04/20 08:39:25;;;;;;;9.63;8.65;;;;;;;16.70;46.62;99090.69;5089488;28;20051;-79
2023/04/20 08:41:54;;;;;;;8.70;7.85;;;;;;;16.89;46.63;99110.06;5091097;28;20027;-77
2023/04/20 08:44:20;;;;;;;10.77;9.43;;;;;;;17.03;46.74;99138.97;5088871;28;20468;-77
2023/04/20 08:46:47;;;;;;;9.88;8.88;;;;;;;17.11;46.83;99132.53;5090322;28;20115;-78
2023/04/20 08:49:15;;;;;;;10.15;9.02;;;;;;;17.08;46.76;99104.41;5089684;28;20496;-79
2023/04/20 08:51:41;;;;;;;9.20;8.40;;;;;;;16.91;46.34;99068.00;5101128;28;20423;-77
2023/04/20 08:54:06;;;;;;;9.30;8.30;;;;;;;16.68;46.00;99026.94;5099144;28;20051;-77
2023/04/20 08:56:37;;;;;;;10.13;7.38;;;;;;;17.29;45.55;99121.75;5094056;28;20076;-78
2023/04/20 08:59:09;;;;;;;9.93;8.93;;;;;;;17.33;45.63;99116.75;5097204;28;20110;-78
2023/04/20 09:01:35;;;;;;;11.45;8.75;;;;;;;16.99;45.37;99060.47;5107286;28;20464;-78
2023/04/20 09:04:00;;;;;;;8.57;7.57;;;;;;;16.97;44.49;99057.22;5111443;28;20062;-77
2023/04/20 09:06:26;;;;;;;9.68;8.68;;;;;;;16.82;44.51;99022.19;5095311;28;20079;-78
2023/04/20 09:08:53;;;;;;;8.38;7.50;;;;;;;17.14;44.28;99070.69;5085562;28;20061;-78
2023/04/20 09:11:23;;;;;;;8.57;7.13;;;;;;;17.47;43.37;99107.47;5090378;28;20493;-79
2023/04/20 09:13:58;;;;;;;8.60;7.47;;;;;;;17.53;42.36;99119.06;5096747;28;20032;-79
2023/04/20 09:16:24;;;;;;;7.50;6.80;;;;;;;17.01;43.09;99033.56;5097542;28;20031;-79
2023/04/20 09:18:56;;;;;;;9.88;7.95;;;;;;;16.97;42.60;98955.88;5084857;28;20523;-78
2023/04/20 09:21:30;;;;;;;8.45;7.45;;;;;;;18.41;42.15;99108.09;5095900;28;20032;-78
2023/04/20 09:24:05;;;;;;;9.27;7.97;;;;;;;18.72;41.53;99110.31;5099158;28;20066;-78
2023/04/20 09:26:34;;;;;;;9.65;8.30;;;;;;;19.25;40.25;99118.91;5089716;28;20044;-78
2023/04/20 09:29:01;;;;;;;7.50;6.70;;;;;;;19.54;39.90;99114.31;5096444;28;20078;-78
2023/04/20 09:31:27;;;;;;;10.07;6.25;;;;;;;19.76;39.44;99115.16;5096090;28;20130;-77
2023/04/20 09:34:03;;;;;;;7.95;7.10;;;;;;;19.73;38.37;99070.09;5093646;28;20027;-78
2023/04/20 09:36:46;;;;;;;8.52;7.30;;;;;;;20.03;37.58;99084.94;5094149;28;20089;-79
2023/04/20 09:39:22;;;;;;;8.63;7.72;;;;;;;20.41;37.78;99106.31;5089435;28;20028;-78
2023/04/20 09:41:50;;;;;;;8.88;6.70;;;;;;;20.05;38.23;99019.28;5087000;28;20040;-78
2023/04/20 09:44:16;;;;;;;6.93;6.22;;;;;;;20.72;37.37;99117.34;5089539;28;20085;-78
2023/04/20 09:46:43;;;;;;;8.35;7.00;;;;;;;19.98;37.25;99022.19;5090368;28;20129;-78
2023/04/20 09:49:12;;;;;;;7.88;7.03;;;;;;;20.28;37.62;99112.03;5099177;28;20054;-77
2023/04/20 09:51:40;;;;;;;9.45;7.05;;;;;;;20.29;37.68;99111.78;5089251;28;20023;-79
2023/04/20 09:54:06;;;;;;;8.77;7.82;;;;;;;20.22;37.71;99056.75;5097501;27;20047;-78
2023/04/20 09:56:34;;;;;;;9.77;7.32;;;;;;;20.68;36.99;99109.00;5096708;28;20032;-79
2023/04/20 09:59:01;;;;;;;7.10;6.18;;;;;;;20.85;36.00;99098.16;5083881;28;20056;-78
2023/04/20 10:01:31;;;;;;;7.53;6.85;;;;;;;21.05;35.00;99103.69;5093776;28;20086;-79
2023/04/20 10:03:58;;;;;;;6.38;5.78;;;;;;;21.08;35.55;99068.28;5089724;28;20039;-78
2023/04/20 10:06:25;;;;;;;7.20;6.60;;;;;;;21.45;35.47;99088.94;5095782;28;20485;-78
2023/04/20 10:08:51;;;;;;;8.32;7.47;;;;;;;21.73;34.77;99090.47;5087490;28;21693;-78
2023/04/20 10:11:33;;;;;;;6.40;5.55;;;;;;;21.61;32.04;99030.78;5086755;28;20126;-77
2023/04/20 10:14:01;;;;;;;6.32;5.75;;;;;;;21.54;33.99;99004.13;5090757;28;20107;-78
2023/04/20 10:16:27;;;;;;;7.78;5.82;;;;;;;22.17;33.44;99080.19;5092375;28;20057;-76
2023/04/20 10:19:02;;;;;;;6.47;5.82;;;;;;;22.01;32.96;99020.16;5092031;28;20028;-78
2023/04/20 10:21:31;;;;;;;8.00;7.20;;;;;;;22.45;32.91;99070.84;5091467;28;20028;-76
2023/04/20 10:24:01;;;;;;;6.80;6.05;;;;;;;22.53;33.44;99048.81;5093245;28;20028;-77
2023/04/20 10:26:40;;;;;;;6.40;5.70;;;;;;;22.37;30.88;99026.47;5092441;28;20044;-77
2023/04/20 10:29:05;;;;;;;5.63;5.10;;;;;;;22.26;32.14;99021.31;5110726;28;20027;-78
2023/04/20 10:31:49;;;;;;;6.95;5.20;;;;;;;22.35;31.91;99034.00;5096704;28;20416;-78
2023/04/20 10:34:15;;;;;;;6.40;5.25;;;;;;;22.57;31.86;99055.25;5088970;28;20066;-77
2023/04/20 10:36:41;;;;;;;6.30;4.88;;;;;;;22.42;31.37;99020.28;5098834;28;20020;-76
2023/04/20 10:39:15;;;;;;;8.77;5.82;;;;;;;22.43;31.74;99030.78;5111277;28;20028;-77
2023/04/20 10:41:57;;;;;;;12.40;6.70;;;;;;;22.66;31.40;99025.94;5088377;28;20024;-77
2023/04/20 10:44:22;;;;;;;;;;;;;;;23.08;32.03;99045.34;5092206;28;20111;-77
2023/04/20 10:46:49;;;;;;;7.35;6.03;;;;;;;22.92;31.92;99005.22;5090215;28;20308;-76
2023/04/20 10:49:15;;;;;;;5.78;5.18;;;;;;;23.29;31.30;99050.69;5092278;28;20016;-76
2023/04/20 10:51:48;;;;;;;6.15;5.55;;;;;;;23.37;29.97;99042.03;5097406;28;20023;-77
2023/04/20 10:54:14;;;;;;;6.68;4.75;;;;;;;23.27;29.88;99010.56;5112883;28;20063;-75
2023/04/20 10:56:44;;;;;;;6.53;5.43;;;;;;;23.75;29.89;99046.78;5113569;28;20051;-75
2023/04/20 10:59:15;;;;;;;6.55;5.68;;;;;;;23.76;29.85;99043.00;5096351;28;20032;-77
2023/04/20 11:01:42;;;;;;;6.30;5.77;;;;;;;23.21;30.13;98965.88;5091179;28;20085;-77
2023/04/20 11:04:11;;;;;;;6.97;6.07;;;;;;;23.40;30.32;98971.44;5106582;28;20489;-76
2023/04/20 11:06:43;;;;;;;7.93;5.45;;;;;;;23.60;30.65;98992.13;5098359;28;20089;-76
2023/04/20 11:09:27;;;;;;;6.53;5.93;;;;;;;24.07;29.87;99037.50;5090835;28;20493;-75
2023/04/20 11:12:04;;;;;;;5.75;5.25;;;;;;;23.94;30.18;99036.22;5094744;28;20056;-75
2023/04/20 11:14:31;;;;;;;6.05;5.53;;;;;;;23.71;29.55;98985.63;5104073;28;20016;-76
2023/04/20 11:16:57;;;;;;;5.63;5.13;;;;;;;23.74;29.10;98967.00;5092794;28;20039;-76
2023/04/20 11:19:31;;;;;;;5.72;5.20;;;;;;;24.41;26.84;99032.16;5099148;28;20028;-76
2023/04/20 11:21:57;;;;;;;5.93;5.40;;;;;;;24.61;28.54;99028.53;5103129;28;20034;-75
2023/04/20 11:24:25;;;;;;;6.13;5.47;;;;;;;24.35;28.68;99012.50;5108944;28;20027;-76
2023/04/20 11:26:55;;;;;;;5.38;4.90;;;;;;;24.15;28.67;99019.91;5100976;28;20052;-75